Hauptseite
METAR-TAF:

METAR-TAF

Flughäfen :

RAF Barkston Heath

Barkston Heath, England

Breite: 52-58N, Länge: 000-34W, Höhe: 112 m

Beobachtung

Neuester Wetterbericht von vor 3 Stunden und 14 Minuten, um 07:50 UTC
Wind 3 kt aus Süd
Temperatur
Luftdruck 1019 hPa
Sichtweite 10 km oder mehr
keine Wolken unter 1500 m und keine Kumulonimbus oder Gewitterwolken

METAR: EGYE 190750Z 17003KT CAVOK ///// Q1019 BLU

Zeit: 12:04 (11:04 UTC)

Prognose

Neuester Wetterbericht von vor 3 Stunden und 45 Minuten, um 07:19 UTC
Gültige Prognose vom 19 um 09 UTC bis 19 um 18 UTC
Wind 5 kt aus unterschiedlichen Richtungen
Sichtweite 10 km oder mehr
Leicht bewölkt in der Höhe von 4000 ft

TAF: EGYE 190719Z 1909/1918 VRB05KT 9999 FEW040

Wetterbeobachtungen und Prognosen von mehr als 4000 Flughäfen (METAR und TAF Bericht).

Die verfügbaren Stationen werden durch gelbe und rote Markierungen auf der Karte dargestellt.

Führen Sie die Maus auf sie, um den Namen der Station zu sehen.

Darauf klicken, um die Beobachtung von Wetterbeobachtungen und Prognosen zu sehen.

Um die Karte zu ändern : klicken Sie auf den grünen Tasten mit einem schwarzen Kreuz Zum Vergrößern, auf den grünen Button mit einem Gedankenstrich zu verkleinern, oder auf die grünen Pfeile für benachbarte Karten.


METAR-TAF: